Aviation Digital Data Service (ADDS)

Output produced by METARs form (1809 UTC 14 August 2018)
found at http://www.aviationweather.gov/adds/metars/
 
FSIA 141800Z 13011KT 100V190 9999 R13///// -SHRA FEW008 BKN015 OVC043 25/22 Q1015 TEMPO 8000 -SHRA
TAF FSIA 141700Z 1418/1518 12015G25KT 8000 -SHRA BKN008 BKN015 OVC028 
     TEMPO 1418/1422 5000 -SHRA/SHRA BKN006 OVC014 
     TEMPO 1500/1506 8000 -SHRA FEW007 BKN014